createdAt,value
2023-05-10T00:00:35.939Z,49.8418
2023-05-10T00:01:36.985Z,49.9885
2023-05-10T00:02:38.216Z,49.9411
2023-05-10T00:03:39.263Z,49.8758
2023-05-10T00:04:40.284Z,49.6718
2023-05-10T00:05:41.391Z,49.3598
2023-05-10T00:06:42.442Z,49.0725
2023-05-10T00:07:43.528Z,48.9121
2023-05-10T00:08:44.617Z,49.0009
2023-05-10T00:09:45.705Z,49.0858
2023-05-10T00:10:46.818Z,49.3070
2023-05-10T00:11:47.888Z,49.3295
2023-05-10T00:12:49.052Z,49.3267
2023-05-10T00:13:50.070Z,49.2547
2023-05-10T00:14:51.164Z,49.0836
2023-05-10T00:15:52.245Z,48.8404
2023-05-10T00:16:53.522Z,48.7486
2023-05-10T00:17:54.485Z,48.7093
2023-05-10T00:18:55.548Z,48.6574
2023-05-10T00:19:56.610Z,48.6989
2023-05-10T00:20:57.735Z,48.8232
2023-05-10T00:21:58.798Z,48.7887
2023-05-10T00:22:59.879Z,48.7764
2023-05-10T00:24:00.987Z,48.6762
2023-05-10T00:25:02.076Z,48.6419
2023-05-10T00:26:03.182Z,48.7974
2023-05-10T00:27:04.231Z,48.7261
2023-05-10T00:28:05.327Z,48.7067
2023-05-10T00:29:06.451Z,48.9368
2023-05-10T00:30:07.516Z,48.8233
2023-05-10T00:31:08.610Z,48.8790
2023-05-10T00:32:09.804Z,48.7963
2023-05-10T00:33:10.869Z,48.7187
2023-05-10T00:34:11.899Z,48.7946
2023-05-10T00:35:12.989Z,48.8431
2023-05-10T00:36:14.097Z,48.8705
2023-05-10T00:37:15.169Z,49.0404
2023-05-10T00:38:16.245Z,49.1197
2023-05-10T00:39:17.353Z,48.8726
2023-05-10T00:40:18.712Z,48.6836
2023-05-10T00:41:19.545Z,48.6791
2023-05-10T00:42:20.611Z,48.9711
2023-05-10T00:43:21.704Z,49.1069
2023-05-10T00:44:22.792Z,49.1149
2023-05-10T00:45:23.904Z,48.9578
2023-05-10T00:46:25.019Z,48.9851
2023-05-10T00:47:26.160Z,49.1475
2023-05-10T00:48:27.166Z,49.0275
2023-05-10T00:49:28.250Z,49.0617
2023-05-10T00:50:29.333Z,49.1613
2023-05-10T00:51:30.473Z,49.2976
2023-05-10T00:52:31.537Z,49.3762
2023-05-10T00:53:32.613Z,49.4314
2023-05-10T00:54:33.705Z,49.1639
2023-05-10T00:55:34.793Z,48.9664
2023-05-10T00:56:35.898Z,49.0246
2023-05-10T00:57:36.962Z,49.1388
2023-05-10T00:58:38.056Z,49.3767
2023-05-10T00:59:39.146Z,49.5707
2023-05-10T01:00:40.234Z,49.5330
2023-05-10T01:01:41.391Z,49.4257
2023-05-10T01:02:42.519Z,49.3557
2023-05-10T01:03:43.488Z,49.3707
2023-05-10T01:04:44.642Z,49.3593
2023-05-10T01:05:45.685Z,49.4600
2023-05-10T01:06:46.775Z,49.4533
2023-05-10T01:07:47.847Z,49.4009
2023-05-10T01:08:48.933Z,49.3294
2023-05-10T01:09:50.032Z,49.3012
2023-05-10T01:10:51.109Z,49.2366
2023-05-10T01:11:52.281Z,49.3213
2023-05-10T01:12:53.366Z,49.3116
2023-05-10T01:13:54.376Z,49.3348
2023-05-10T01:14:55.475Z,49.2927
2023-05-10T01:15:56.593Z,49.3180
2023-05-10T01:16:57.700Z,49.4672
2023-05-10T01:17:58.780Z,49.5274
2023-05-10T01:18:59.856Z,49.3916
2023-05-10T01:20:00.945Z,49.1732
2023-05-10T01:21:02.023Z,49.1386
2023-05-10T01:22:03.123Z,49.1282
2023-05-10T01:23:04.196Z,48.9982
2023-05-10T01:24:05.297Z,48.8854
2023-05-10T01:25:06.355Z,48.8807
2023-05-10T01:26:07.444Z,48.8885
2023-05-10T01:27:08.631Z,49.0339
2023-05-10T01:28:09.629Z,49.0672
2023-05-10T01:29:10.727Z,48.9726
2023-05-10T01:30:22.003Z,48.8352
2023-05-10T01:31:13.933Z,48.6707
2023-05-10T01:32:14.018Z,48.5820
2023-05-10T01:33:15.082Z,48.6316
2023-05-10T01:34:16.160Z,48.5968
2023-05-10T01:35:17.251Z,48.5588
2023-05-10T01:36:18.327Z,48.6317
2023-05-10T01:37:19.440Z,48.8270
2023-05-10T01:38:20.525Z,48.8549
2023-05-10T01:39:21.600Z,48.9906
2023-05-10T01:40:22.672Z,48.9743
2023-05-10T01:41:23.762Z,49.1127
2023-05-10T01:42:24.877Z,49.1449
2023-05-10T01:43:25.935Z,49.2265
2023-05-10T01:44:27.038Z,49.3363
2023-05-10T01:45:28.157Z,49.2628
2023-05-10T01:46:29.233Z,49.0980
2023-05-10T01:47:30.354Z,49.2639
2023-05-10T01:48:31.452Z,49.2700
2023-05-10T01:49:32.483Z,49.2963
2023-05-10T01:50:33.574Z,49.2737
2023-05-10T01:51:34.664Z,49.0861
2023-05-10T01:52:35.754Z,48.9461
2023-05-10T01:53:36.836Z,49.0161
2023-05-10T01:54:37.929Z,49.1215
2023-05-10T01:55:39.038Z,48.9743
2023-05-10T01:56:40.121Z,49.0634
2023-05-10T01:57:41.210Z,49.2382
2023-05-10T01:58:42.309Z,49.3199
2023-05-10T01:59:43.402Z,49.3236
2023-05-10T02:00:44.534Z,49.4228
2023-05-10T02:01:45.573Z,49.3846
2023-05-10T02:02:46.709Z,49.3118
2023-05-10T02:03:47.814Z,49.2683
2023-05-10T02:04:48.853Z,49.0209
2023-05-10T02:05:57.479Z,48.8728
2023-05-10T02:06:51.044Z,49.0027
2023-05-10T02:07:52.169Z,49.0738
2023-05-10T02:08:53.212Z,49.0708
2023-05-10T02:09:54.322Z,49.3298
2023-05-10T02:10:55.407Z,49.3952
2023-05-10T02:11:56.494Z,49.2061
2023-05-10T02:12:57.615Z,49.1762
2023-05-10T02:13:58.703Z,49.3859
2023-05-10T02:14:59.795Z,49.4298
2023-05-10T02:16:00.904Z,49.6698
2023-05-10T02:17:02.082Z,49.7343
2023-05-10T02:18:03.151Z,49.5886
2023-05-10T02:19:04.162Z,49.6324
2023-05-10T02:20:05.232Z,49.6398
2023-05-10T02:21:06.387Z,49.7146
2023-05-10T02:22:07.448Z,49.6858
2023-05-10T02:23:08.538Z,49.4600
2023-05-10T02:24:09.619Z,49.3428
2023-05-10T02:25:10.706Z,49.4666
2023-05-10T02:26:11.802Z,49.4377
2023-05-10T02:27:12.896Z,49.5417
2023-05-10T02:28:14.134Z,49.4506
2023-05-10T02:29:15.160Z,49.4416
2023-05-10T02:30:16.367Z,49.6621
2023-05-10T02:31:17.320Z,49.8304
2023-05-10T02:32:18.518Z,49.9072
2023-05-10T02:33:19.532Z,49.9867
2023-05-10T02:34:20.620Z,50.1177
2023-05-10T02:35:21.699Z,50.0137
2023-05-10T02:36:22.784Z,49.8179
2023-05-10T02:37:23.885Z,50.0025
2023-05-10T02:38:24.968Z,49.9797
2023-05-10T02:39:26.043Z,49.9816
2023-05-10T02:40:28.792Z,50.1090
2023-05-10T02:41:28.242Z,50.1595
2023-05-10T02:42:29.328Z,49.9964
2023-05-10T02:43:30.422Z,49.8485
2023-05-10T02:44:31.543Z,49.7576
2023-05-10T02:45:32.595Z,49.7038
2023-05-10T02:46:33.815Z,49.6495
2023-05-10T02:47:34.811Z,49.6579
2023-05-10T02:48:35.891Z,49.5607
2023-05-10T02:49:36.969Z,49.2746
2023-05-10T02:50:38.062Z,49.3103
2023-05-10T02:51:39.156Z,49.6463
2023-05-10T02:52:40.250Z,49.6413
2023-05-10T02:53:41.405Z,49.5839
2023-05-10T02:54:42.411Z,49.5860
2023-05-10T02:55:43.518Z,49.2944
2023-05-10T02:56:44.605Z,49.2494
2023-05-10T02:57:45.711Z,49.3614
2023-05-10T02:58:46.815Z,49.5528
2023-05-10T02:59:47.898Z,49.6207
2023-05-10T03:00:48.952Z,49.5660
2023-05-10T03:01:50.180Z,49.4223
2023-05-10T03:02:51.175Z,49.3257
2023-05-10T03:03:52.289Z,49.3293
2023-05-10T03:04:53.369Z,49.3209
2023-05-10T03:05:54.441Z,49.3874
2023-05-10T03:06:55.505Z,49.5431
2023-05-10T03:07:56.629Z,49.5686
2023-05-10T03:08:57.709Z,49.3891
2023-05-10T03:09:58.788Z,49.1868
2023-05-10T03:10:59.864Z,49.2461
2023-05-10T03:12:00.961Z,49.4007
2023-05-10T03:13:02.083Z,49.4911
2023-05-10T03:14:03.158Z,49.5777
2023-05-10T03:15:04.219Z,49.4858
2023-05-10T03:16:05.336Z,49.3799
2023-05-10T03:17:06.407Z,49.3753
2023-05-10T03:18:07.616Z,49.2096
2023-05-10T03:19:08.579Z,49.2944
2023-05-10T03:20:09.660Z,49.2303
2023-05-10T03:21:10.739Z,49.3330
2023-05-10T03:22:11.853Z,49.4541
2023-05-10T03:23:12.967Z,49.3524
2023-05-10T03:24:14.038Z,49.3172
2023-05-10T03:25:15.119Z,49.2215
2023-05-10T03:26:16.214Z,49.2642
2023-05-10T03:27:17.300Z,49.0678
2023-05-10T03:28:18.395Z,48.8241
2023-05-10T03:29:19.579Z,48.7864
2023-05-10T03:30:20.576Z,49.1248
2023-05-10T03:31:21.685Z,49.2401
2023-05-10T03:32:22.804Z,49.0778
2023-05-10T03:33:23.861Z,49.0913
2023-05-10T03:34:24.998Z,49.1339
2023-05-10T03:35:26.075Z,49.3128
2023-05-10T03:36:27.154Z,49.3707
2023-05-10T03:37:28.261Z,49.3646
2023-05-10T03:38:30.534Z,49.3041
2023-05-10T03:39:30.405Z,49.2929
2023-05-10T03:40:31.474Z,49.3383
2023-05-10T03:41:32.572Z,49.4263
2023-05-10T03:42:33.685Z,49.4179
2023-05-10T03:43:34.781Z,49.1660
2023-05-10T03:44:35.867Z,49.2528
2023-05-10T03:45:36.943Z,49.3519
2023-05-10T03:46:38.085Z,49.4000
2023-05-10T03:47:39.163Z,49.3865
2023-05-10T03:48:40.240Z,49.3867
2023-05-10T03:49:41.368Z,49.3686
2023-05-10T03:50:42.422Z,49.2711
2023-05-10T03:51:43.495Z,49.1038
2023-05-10T03:52:44.620Z,49.0854
2023-05-10T03:53:45.694Z,49.1074
2023-05-10T03:54:46.807Z,49.0266
2023-05-10T03:55:47.861Z,49.0007
2023-05-10T03:56:49.023Z,49.0040
2023-05-10T03:57:50.053Z,49.2569
2023-05-10T03:58:51.123Z,49.3110
2023-05-10T03:59:52.229Z,49.2782
2023-05-10T04:00:53.335Z,49.1697
2023-05-10T04:01:54.490Z,49.0978
2023-05-10T04:02:55.542Z,48.8812
2023-05-10T04:03:56.665Z,48.7608
2023-05-10T04:04:57.689Z,48.7651
2023-05-10T04:05:58.856Z,48.7925
2023-05-10T04:06:59.868Z,48.7694
2023-05-10T04:08:00.968Z,48.9037
2023-05-10T04:09:02.082Z,48.8662
2023-05-10T04:10:03.174Z,48.7607
2023-05-10T04:11:04.230Z,48.7154
2023-05-10T04:12:05.365Z,48.8532
2023-05-10T04:13:06.511Z,48.8269
2023-05-10T04:14:07.503Z,48.8383
2023-05-10T04:15:08.653Z,49.0765
2023-05-10T04:16:09.685Z,49.2860
2023-05-10T04:17:10.817Z,49.2360
2023-05-10T04:18:11.900Z,48.9698
2023-05-10T04:19:12.964Z,48.7709
2023-05-10T04:20:14.193Z,48.6992
2023-05-10T04:21:15.168Z,48.8530
2023-05-10T04:22:16.234Z,48.8644
2023-05-10T04:23:17.300Z,49.0058
2023-05-10T04:24:18.402Z,49.0673
2023-05-10T04:25:19.488Z,48.9441
2023-05-10T04:26:20.577Z,48.8065
2023-05-10T04:27:21.701Z,48.9094
2023-05-10T04:28:22.760Z,48.9679
2023-05-10T04:29:23.863Z,48.8359
2023-05-10T04:30:24.957Z,48.8291
2023-05-10T04:31:26.074Z,48.8034
2023-05-10T04:32:27.191Z,48.9585
2023-05-10T04:33:28.288Z,48.9522
2023-05-10T04:34:29.300Z,48.8116
2023-05-10T04:35:30.385Z,48.6970
2023-05-10T04:36:31.470Z,48.5370
2023-05-10T04:37:32.575Z,48.6218
2023-05-10T04:38:33.728Z,48.8485
2023-05-10T04:39:34.759Z,49.0107
2023-05-10T04:40:35.933Z,49.1201
2023-05-10T04:41:36.919Z,48.9491
2023-05-10T04:42:38.017Z,48.6815
2023-05-10T04:43:39.245Z,48.5201
2023-05-10T04:44:40.207Z,48.3908
2023-05-10T04:45:41.325Z,48.3261
2023-05-10T04:46:42.510Z,48.2697
2023-05-10T04:47:43.521Z,48.3511
2023-05-10T04:48:44.563Z,48.5554
2023-05-10T04:49:45.645Z,48.6166
2023-05-10T04:50:46.771Z,48.6960
2023-05-10T04:51:47.868Z,48.7332
2023-05-10T04:52:48.936Z,48.6774
2023-05-10T04:54:01.446Z,48.6682
2023-05-10T04:54:52.116Z,48.7167
2023-05-10T04:55:52.215Z,48.6543
2023-05-10T04:56:53.294Z,48.5109
2023-05-10T04:57:54.388Z,48.3639
2023-05-10T04:58:55.498Z,48.2700
2023-05-10T04:59:56.544Z,48.4065
2023-05-10T05:00:57.674Z,48.3810
2023-05-10T05:01:58.801Z,48.2416
2023-05-10T05:02:59.930Z,48.1258
2023-05-10T05:04:01.043Z,48.2475
2023-05-10T05:05:02.015Z,48.2454
2023-05-10T05:06:03.168Z,48.2178
2023-05-10T05:07:04.206Z,48.1283
2023-05-10T05:08:05.295Z,48.2515
2023-05-10T05:09:06.396Z,48.2519
2023-05-10T05:10:07.525Z,48.1994
2023-05-10T05:11:08.574Z,48.0800
2023-05-10T05:12:09.706Z,48.0829
2023-05-10T05:13:10.782Z,47.9271
2023-05-10T05:14:11.833Z,47.8880
2023-05-10T05:15:12.967Z,47.9821
2023-05-10T05:16:14.223Z,48.0619
2023-05-10T05:17:15.168Z,47.9357
2023-05-10T05:18:16.233Z,48.0094
2023-05-10T05:19:17.371Z,48.2668
2023-05-10T05:20:18.674Z,48.2908
2023-05-10T05:21:19.516Z,48.1377
2023-05-10T05:22:20.619Z,47.8945
2023-05-10T05:23:21.741Z,47.7686
2023-05-10T05:24:22.786Z,47.7213
2023-05-10T05:25:23.869Z,47.6597
2023-05-10T05:26:24.971Z,47.6324
2023-05-10T05:27:26.053Z,47.5009
2023-05-10T05:28:27.180Z,47.5552
2023-05-10T05:29:28.246Z,47.6322
2023-05-10T05:30:29.342Z,47.6708
2023-05-10T05:31:30.496Z,47.6225
2023-05-10T05:32:31.552Z,47.7084
2023-05-10T05:33:32.617Z,47.7607
2023-05-10T05:34:33.734Z,47.7573
2023-05-10T05:35:34.813Z,47.7269
2023-05-10T05:36:37.619Z,47.5841
2023-05-10T05:37:36.981Z,47.6687
2023-05-10T05:38:38.093Z,47.7899
2023-05-10T05:39:39.229Z,47.8867
2023-05-10T05:40:40.291Z,47.8196
2023-05-10T05:41:41.351Z,47.7760
2023-05-10T05:42:42.458Z,47.7531
2023-05-10T05:43:43.544Z,47.8708
2023-05-10T05:44:44.623Z,47.9163
2023-05-10T05:45:45.777Z,48.0655
2023-05-10T05:46:46.866Z,48.0639
2023-05-10T05:47:47.976Z,47.8733
2023-05-10T05:48:48.987Z,47.6783
2023-05-10T05:49:50.109Z,47.8769
2023-05-10T05:50:51.182Z,47.9700
2023-05-10T05:51:52.270Z,47.8243
2023-05-10T05:52:53.366Z,47.7661
2023-05-10T05:53:54.497Z,47.8610
2023-05-10T05:54:55.549Z,47.6650
2023-05-10T05:55:56.621Z,47.4452
2023-05-10T05:56:59.830Z,47.3061
2023-05-10T05:57:58.829Z,47.2465
2023-05-10T05:58:59.912Z,47.3023
2023-05-10T06:00:01.019Z,47.2611
2023-05-10T06:01:02.099Z,47.1523
2023-05-10T06:02:03.213Z,47.0727
2023-05-10T06:03:04.378Z,47.0599
2023-05-10T06:04:05.444Z,47.1809
2023-05-10T06:05:06.507Z,47.0808
2023-05-10T06:06:07.571Z,47.0599
2023-05-10T06:07:08.704Z,47.1784
2023-05-10T06:08:09.772Z,47.2803
2023-05-10T06:09:10.834Z,47.3178
2023-05-10T06:10:11.929Z,47.3150
2023-05-10T06:11:13.036Z,47.3258
2023-05-10T06:12:14.139Z,47.3947
2023-05-10T06:13:15.245Z,47.5924
2023-05-10T06:14:16.310Z,47.7845
2023-05-10T06:15:17.593Z,47.6648
2023-05-10T06:16:18.503Z,47.5203
2023-05-10T06:17:19.603Z,47.4264
2023-05-10T06:18:20.717Z,47.2675
2023-05-10T06:19:21.785Z,47.1168
2023-05-10T06:20:22.894Z,47.0537
2023-05-10T06:21:24.001Z,46.9644
2023-05-10T06:22:25.063Z,46.9414
2023-05-10T06:23:26.156Z,46.9081
2023-05-10T06:24:27.261Z,46.9484
2023-05-10T06:25:28.360Z,46.9874
2023-05-10T06:26:29.487Z,47.1969
2023-05-10T06:27:30.535Z,47.4297
2023-05-10T06:28:31.710Z,47.3692
2023-05-10T06:29:32.808Z,47.1184
2023-05-10T06:30:33.933Z,46.9127
2023-05-10T06:31:35.011Z,46.8720
2023-05-10T06:32:36.174Z,46.8343
2023-05-10T06:33:37.194Z,46.9789
2023-05-10T06:34:38.254Z,47.1147
2023-05-10T06:35:39.350Z,46.9539
2023-05-10T06:36:40.460Z,46.8525
2023-05-10T06:37:41.603Z,46.9112
2023-05-10T06:38:42.682Z,46.7900
2023-05-10T06:39:43.746Z,46.5642
2023-05-10T06:40:44.834Z,46.5951
2023-05-10T06:41:45.943Z,46.6253
2023-05-10T06:42:47.001Z,46.5909
2023-05-10T06:43:48.133Z,46.3940
2023-05-10T06:44:49.236Z,46.1852
2023-05-10T06:45:50.279Z,46.0009
2023-05-10T06:46:51.446Z,45.9661
2023-05-10T06:47:52.565Z,45.9269
2023-05-10T06:48:53.601Z,45.8738
2023-05-10T06:49:54.678Z,45.7486
2023-05-10T06:50:55.757Z,45.6318
2023-05-10T06:51:56.843Z,45.5870
2023-05-10T06:52:57.960Z,45.5081
2023-05-10T06:53:59.025Z,45.5908
2023-05-10T06:55:00.179Z,45.7046
2023-05-10T06:56:01.212Z,45.7439
2023-05-10T06:57:03.935Z,45.7932
2023-05-10T06:58:03.436Z,45.7287
2023-05-10T06:59:04.575Z,45.6122
2023-05-10T07:00:05.660Z,45.4720
2023-05-10T07:01:06.731Z,45.3941
2023-05-10T07:02:07.848Z,45.2869
2023-05-10T07:03:09.017Z,45.4162
2023-05-10T07:04:09.962Z,45.5475
2023-05-10T07:05:11.037Z,45.4330
2023-05-10T07:06:21.758Z,45.3050
2023-05-10T07:07:14.261Z,45.2306
2023-05-10T07:08:14.371Z,45.1945
2023-05-10T07:09:15.422Z,45.0492
2023-05-10T07:10:16.512Z,44.9538
2023-05-10T07:11:17.628Z,45.0138
2023-05-10T07:12:18.733Z,45.0397
2023-05-10T07:13:19.915Z,45.0335
2023-05-10T07:14:20.933Z,45.0410
2023-05-10T07:15:22.002Z,45.1365
2023-05-10T07:16:23.306Z,45.2414
2023-05-10T07:17:24.216Z,45.1355
2023-05-10T07:18:25.302Z,45.0108
2023-05-10T07:19:26.369Z,44.9418
2023-05-10T07:20:27.490Z,44.9252
2023-05-10T07:21:28.582Z,44.8331
2023-05-10T07:22:29.625Z,44.7602
2023-05-10T07:23:30.762Z,44.7648
2023-05-10T07:24:31.835Z,44.7853
2023-05-10T07:25:32.957Z,44.8902
2023-05-10T07:26:34.058Z,45.1019
2023-05-10T07:27:35.149Z,45.0799
2023-05-10T07:28:36.218Z,45.0286
2023-05-10T07:29:37.301Z,45.1083
2023-05-10T07:30:38.426Z,45.1342
2023-05-10T07:31:39.531Z,45.1237
2023-05-10T07:32:40.755Z,45.1240
2023-05-10T07:33:41.725Z,45.0687
2023-05-10T07:34:42.792Z,44.9893
2023-05-10T07:35:43.919Z,44.9144
2023-05-10T07:36:44.975Z,44.8832
2023-05-10T07:37:46.057Z,44.9589
2023-05-10T07:38:47.171Z,45.1166
2023-05-10T07:39:48.314Z,45.1539
2023-05-10T07:40:49.353Z,45.0521
2023-05-10T07:41:50.469Z,44.9394
2023-05-10T07:42:51.546Z,44.8794
2023-05-10T07:43:52.664Z,44.9841
2023-05-10T07:44:53.739Z,45.1723
2023-05-10T07:45:56.427Z,45.3899
2023-05-10T07:46:55.976Z,45.4681
2023-05-10T07:47:57.100Z,45.3050
2023-05-10T07:48:58.138Z,45.1282
2023-05-10T07:49:59.229Z,45.0915
2023-05-10T07:51:00.310Z,44.9641
2023-05-10T07:52:01.406Z,45.0753
2023-05-10T07:53:02.516Z,45.3030
2023-05-10T07:54:03.631Z,45.4535
2023-05-10T07:55:04.684Z,45.4628
2023-05-10T07:56:05.777Z,45.3307
2023-05-10T07:57:06.901Z,45.2573
2023-05-10T07:58:07.989Z,45.2965
2023-05-10T07:59:11.304Z,45.3713
2023-05-10T08:00:10.174Z,45.2997
2023-05-10T08:01:11.250Z,45.2745
2023-05-10T08:02:12.405Z,45.1717
2023-05-10T08:03:13.584Z,45.2635
2023-05-10T08:04:14.569Z,45.1261
2023-05-10T08:05:16.008Z,45.0597
2023-05-10T08:06:16.720Z,45.1800
2023-05-10T08:07:17.810Z,45.5014
2023-05-10T08:08:18.922Z,45.6643
2023-05-10T08:09:20.153Z,45.4919
2023-05-10T08:10:21.180Z,45.3120
2023-05-10T08:11:22.178Z,45.0062
2023-05-10T08:12:23.297Z,44.9433
2023-05-10T08:13:24.358Z,44.9692
2023-05-10T08:14:25.463Z,44.8280
2023-05-10T08:15:26.540Z,44.7321
2023-05-10T08:16:27.829Z,44.5277
2023-05-10T08:17:28.738Z,44.3763
2023-05-10T08:18:29.877Z,44.2244
2023-05-10T08:19:30.944Z,44.1438
2023-05-10T08:20:32.008Z,44.0721
2023-05-10T08:21:33.116Z,44.0781
2023-05-10T08:22:34.198Z,44.0815
2023-05-10T08:23:35.293Z,44.2333
2023-05-10T08:24:36.418Z,44.2153
2023-05-10T08:25:37.463Z,44.0561
2023-05-10T08:26:38.560Z,44.0147
2023-05-10T08:27:39.644Z,43.9831
2023-05-10T08:28:40.748Z,43.9847
2023-05-10T08:29:49.397Z,43.9566
2023-05-10T08:30:43.938Z,43.8867
2023-05-10T08:31:44.185Z,43.8566
2023-05-10T08:32:45.191Z,43.9485
2023-05-10T08:33:46.234Z,43.8892
2023-05-10T08:34:47.326Z,43.8297
2023-05-10T08:35:48.416Z,43.7550
2023-05-10T08:36:49.511Z,43.7115
2023-05-10T08:37:50.617Z,43.6989
2023-05-10T08:38:52.187Z,43.6355
2023-05-10T08:39:52.815Z,43.5571
2023-05-10T08:40:53.957Z,43.4558
2023-05-10T08:41:55.017Z,43.3363
2023-05-10T08:42:56.087Z,43.2921
2023-05-10T08:43:57.192Z,43.4611
2023-05-10T08:44:58.297Z,43.5202
2023-05-10T08:45:59.418Z,43.4120
2023-05-10T08:47:00.735Z,43.2827
2023-05-10T08:48:01.591Z,43.1447
2023-05-10T08:49:02.710Z,42.9810
2023-05-10T08:50:03.779Z,42.8732
2023-05-10T08:51:04.873Z,42.8228
2023-05-10T08:52:05.973Z,42.8403
2023-05-10T08:53:07.082Z,42.9188
2023-05-10T08:54:08.223Z,43.0102
2023-05-10T08:55:09.318Z,43.0596
2023-05-10T08:56:10.417Z,43.0812
2023-05-10T08:57:11.504Z,43.1084
2023-05-10T08:58:12.624Z,43.0883
2023-05-10T08:59:13.732Z,43.1015
2023-05-10T09:00:14.827Z,43.0901
2023-05-10T09:01:15.966Z,42.9825
2023-05-10T09:02:18.811Z,43.0203
2023-05-10T09:03:18.170Z,43.0184
2023-05-10T09:04:19.325Z,43.0341
2023-05-10T09:05:20.620Z,43.0440
2023-05-10T09:06:21.490Z,43.0053
2023-05-10T09:07:22.567Z,42.9998
2023-05-10T09:08:23.718Z,42.9207
2023-05-10T09:09:24.776Z,42.7919
2023-05-10T09:10:26.013Z,42.7174
2023-05-10T09:11:26.975Z,42.6155
2023-05-10T09:12:28.068Z,42.6007
2023-05-10T09:13:29.210Z,42.6428
2023-05-10T09:14:30.334Z,42.6148
2023-05-10T09:15:31.462Z,42.5492
2023-05-10T09:16:32.517Z,42.5825
2023-05-10T09:17:33.680Z,42.5666
2023-05-10T09:18:34.833Z,42.4850
2023-05-10T09:19:35.834Z,42.4151
2023-05-10T09:20:36.933Z,42.4705
2023-05-10T09:21:38.051Z,42.5760
2023-05-10T09:22:39.161Z,42.5619
2023-05-10T09:23:40.235Z,42.5451
2023-05-10T09:24:41.341Z,42.4664
2023-05-10T09:25:42.482Z,42.3881
2023-05-10T09:26:43.574Z,42.3350
2023-05-10T09:27:44.681Z,42.3083
2023-05-10T09:28:45.832Z,42.3378
2023-05-10T09:29:46.889Z,42.5491
2023-05-10T09:30:48.022Z,42.6306
2023-05-10T09:31:49.099Z,42.6184
2023-05-10T09:32:50.346Z,42.4470
2023-05-10T09:33:51.300Z,42.2519
2023-05-10T09:34:52.517Z,42.0737
2023-05-10T09:35:53.562Z,41.9483
2023-05-10T09:36:54.637Z,41.9106
2023-05-10T09:37:55.743Z,41.9138
2023-05-10T09:38:56.832Z,42.1791
2023-05-10T09:39:57.957Z,42.1582
2023-05-10T09:40:59.067Z,42.0234
2023-05-10T09:42:00.165Z,41.9560
2023-05-10T09:43:01.275Z,41.8854
2023-05-10T09:44:02.381Z,41.9477
2023-05-10T09:45:03.487Z,41.9022
2023-05-10T09:46:04.605Z,41.8201
2023-05-10T09:47:05.727Z,41.8490
2023-05-10T09:48:06.915Z,41.9015
2023-05-10T09:49:07.910Z,41.9194
2023-05-10T09:50:09.037Z,41.8732
2023-05-10T09:51:10.140Z,41.8556
2023-05-10T09:52:11.226Z,41.8019
2023-05-10T09:53:12.403Z,41.7316
2023-05-10T09:54:13.463Z,41.6763
2023-05-10T09:55:14.718Z,41.5840
2023-05-10T09:56:15.670Z,41.5216
2023-05-10T09:57:16.790Z,41.4681
2023-05-10T09:58:17.907Z,41.4554
2023-05-10T09:59:19.012Z,41.4318
2023-05-10T10:00:20.195Z,41.4939
2023-05-10T10:01:21.252Z,41.5526
2023-05-10T10:02:22.387Z,41.4840
2023-05-10T10:03:23.434Z,41.4578
2023-05-10T10:04:24.622Z,41.4268
2023-05-10T10:05:25.676Z,41.4748
2023-05-10T10:06:29.986Z,41.4729
2023-05-10T10:07:27.876Z,41.4672
2023-05-10T10:08:28.969Z,41.4455
2023-05-10T10:09:30.067Z,41.6005
2023-05-10T10:10:31.172Z,41.7230
2023-05-10T10:11:32.289Z,41.5733
2023-05-10T10:12:33.485Z,41.4269
2023-05-10T10:13:34.503Z,41.2784
2023-05-10T10:14:35.596Z,41.2052
2023-05-10T10:15:36.831Z,41.2197
2023-05-10T10:16:43.653Z,41.1886
2023-05-10T10:17:39.961Z,41.1504
2023-05-10T10:18:40.046Z,41.0579
2023-05-10T10:19:41.148Z,40.9692
2023-05-10T10:20:42.217Z,40.9028
2023-05-10T10:21:43.370Z,41.0167
2023-05-10T10:22:44.428Z,41.0499
2023-05-10T10:23:45.532Z,41.0475
2023-05-10T10:24:46.627Z,41.0409
2023-05-10T10:25:47.719Z,41.1564
2023-05-10T10:26:48.848Z,41.0572
2023-05-10T10:27:49.931Z,41.0675
2023-05-10T10:28:51.084Z,41.2903
2023-05-10T10:29:52.205Z,41.4026
2023-05-10T10:30:53.311Z,41.2410
2023-05-10T10:31:54.549Z,41.0619
2023-05-10T10:32:55.507Z,40.9001
2023-05-10T10:33:56.584Z,40.9831
2023-05-10T10:34:57.655Z,41.0942
2023-05-10T10:35:58.761Z,40.9689
2023-05-10T10:36:59.866Z,40.7952
2023-05-10T10:38:00.989Z,40.6807
2023-05-10T10:39:02.048Z,40.7251
2023-05-10T10:40:03.128Z,40.7078
2023-05-10T10:41:04.244Z,40.7192
2023-05-10T10:42:05.343Z,40.5834
2023-05-10T10:43:06.413Z,40.3646
2023-05-10T10:44:07.520Z,40.2094
2023-05-10T10:45:08.620Z,40.0497
2023-05-10T10:46:09.720Z,40.1478
2023-05-10T10:47:11.044Z,40.2496
2023-05-10T10:48:11.909Z,40.1444
2023-05-10T10:49:13.019Z,40.1865
2023-05-10T10:50:14.925Z,40.1628
2023-05-10T10:51:15.183Z,39.9760
2023-05-10T10:52:16.323Z,39.8638
2023-05-10T10:53:17.414Z,39.8006
2023-05-10T10:54:18.519Z,40.0171
2023-05-10T10:55:19.657Z,40.1732
2023-05-10T10:56:20.675Z,40.1060
2023-05-10T10:57:21.769Z,40.0322
2023-05-10T10:58:22.856Z,39.9512
2023-05-10T10:59:23.989Z,39.8000
2023-05-10T11:00:25.067Z,39.7190
2023-05-10T11:01:26.165Z,39.8355
2023-05-10T11:02:27.715Z,39.9099
2023-05-10T11:03:28.361Z,40.1299
2023-05-10T11:04:29.511Z,40.2481
2023-05-10T11:05:30.547Z,40.2040
2023-05-10T11:06:31.656Z,40.3027
2023-05-10T11:07:32.768Z,40.3079
2023-05-10T11:08:35.714Z,40.1563
2023-05-10T11:09:34.920Z,39.9919
2023-05-10T11:10:36.028Z,39.8646
2023-05-10T11:11:37.117Z,39.8156
2023-05-10T11:12:38.220Z,39.8136
2023-05-10T11:13:39.378Z,39.9090
2023-05-10T11:14:40.403Z,40.0764
2023-05-10T11:15:41.581Z,39.9531
2023-05-10T11:16:42.597Z,39.8455
2023-05-10T11:17:43.739Z,39.6846
2023-05-10T11:18:44.933Z,39.6618
2023-05-10T11:19:45.887Z,39.8704
2023-05-10T11:20:46.998Z,39.9318
2023-05-10T11:21:48.087Z,39.8577
2023-05-10T11:22:49.185Z,39.7436
2023-05-10T11:23:50.275Z,39.8779
2023-05-10T11:24:51.371Z,39.8549
2023-05-10T11:25:52.467Z,39.8730
2023-05-10T11:26:53.567Z,39.7324
2023-05-10T11:27:54.703Z,39.7275
2023-05-10T11:28:55.750Z,39.6747
2023-05-10T11:29:56.861Z,39.6440
2023-05-10T11:30:57.926Z,39.8926
2023-05-10T11:31:59.023Z,40.0376
2023-05-10T11:33:00.192Z,40.1042
2023-05-10T11:34:01.223Z,40.1948
2023-05-10T11:35:02.308Z,40.0510
2023-05-10T11:36:03.381Z,39.9037
2023-05-10T11:37:04.493Z,39.8298
2023-05-10T11:38:05.591Z,39.9475
2023-05-10T11:39:06.671Z,39.9799
2023-05-10T11:40:07.775Z,40.0811
2023-05-10T11:41:08.855Z,40.0398
2023-05-10T11:42:10.049Z,39.9781
2023-05-10T11:43:11.060Z,39.8218
2023-05-10T11:44:12.160Z,39.7132
2023-05-10T11:45:13.242Z,39.8898
2023-05-10T11:46:14.344Z,40.1100
2023-05-10T11:47:15.423Z,40.1238
2023-05-10T11:48:16.613Z,40.0077
2023-05-10T11:49:17.618Z,39.7893
2023-05-10T11:50:18.993Z,39.5422
2023-05-10T11:51:19.800Z,39.3932
2023-05-10T11:52:20.922Z,39.3049
2023-05-10T11:53:23.270Z,39.2407
2023-05-10T11:54:23.124Z,39.1889
2023-05-10T11:55:24.247Z,39.1761
2023-05-10T11:56:25.333Z,39.2312
2023-05-10T11:57:26.382Z,39.1698
2023-05-10T11:58:27.484Z,39.0980
2023-05-10T11:59:28.607Z,39.0208
2023-05-10T12:00:29.693Z,38.8177
2023-05-10T12:01:30.748Z,38.6618
2023-05-10T12:02:31.904Z,38.4540
2023-05-10T12:03:33.094Z,38.2921
2023-05-10T12:04:34.067Z,38.3451
2023-05-10T12:05:35.186Z,38.2906
2023-05-10T12:06:36.234Z,38.2679
2023-05-10T12:07:37.322Z,38.1785
2023-05-10T12:08:38.411Z,38.1255
2023-05-10T12:09:44.037Z,38.1073
2023-05-10T12:10:41.642Z,38.0857
2023-05-10T12:11:44.026Z,38.2080
2023-05-10T12:12:42.804Z,38.1090
2023-05-10T12:13:44.049Z,37.9905
2023-05-10T12:14:44.977Z,37.8617
2023-05-10T12:15:46.060Z,37.7413
2023-05-10T12:16:47.343Z,37.6873
2023-05-10T12:17:48.336Z,37.6246
2023-05-10T12:18:49.378Z,37.5794